createdAt,value
2019-02-21T00:01:06.568Z,76.72
2019-02-21T00:03:35.158Z,70.12
2019-02-21T00:06:04.117Z,72.15
2019-02-21T00:08:32.784Z,70.20
2019-02-21T00:11:01.731Z,62.98
2019-02-21T00:13:30.407Z,61.98
2019-02-21T00:15:59.169Z,58.45
2019-02-21T00:18:28.093Z,53.52
2019-02-21T00:20:57.006Z,61.70
2019-02-21T00:23:25.609Z,57.53
2019-02-21T00:25:55.821Z,44.08
2019-02-21T00:28:24.895Z,45.03
2019-02-21T00:30:53.485Z,56.58
2019-02-21T00:33:22.126Z,41.33
2019-02-21T00:35:51.125Z,42.23
2019-02-21T00:38:19.787Z,43.05
2019-02-21T00:40:48.813Z,36.55
2019-02-21T00:43:17.662Z,34.75
2019-02-21T00:45:46.726Z,35.95
2019-02-21T00:48:15.914Z,37.15
2019-02-21T00:50:44.895Z,35.08
2019-02-21T00:53:13.820Z,36.90
2019-02-21T00:55:42.531Z,34.30
2019-02-21T00:58:11.713Z,30.27
2019-02-21T01:00:46.574Z,32.70
2019-02-21T01:03:11.085Z,34.00
2019-02-21T01:05:39.841Z,32.33
2019-02-21T01:08:09.439Z,33.23
2019-02-21T01:10:38.327Z,33.50
2019-02-21T01:13:07.263Z,31.00
2019-02-21T01:15:36.015Z,31.93
2019-02-21T01:18:04.766Z,31.00
2019-02-21T01:20:33.745Z,32.35
2019-02-21T01:23:02.589Z,31.27
2019-02-21T01:25:31.308Z,30.95
2019-02-21T01:28:00.301Z,30.92
2019-02-21T01:30:29.056Z,32.03
2019-02-21T01:32:57.599Z,31.42
2019-02-21T01:35:26.552Z,31.05
2019-02-21T01:37:55.392Z,33.23
2019-02-21T01:40:24.120Z,34.50
2019-02-21T01:42:53.054Z,33.83
2019-02-21T01:45:21.694Z,34.27
2019-02-21T01:47:50.392Z,34.33
2019-02-21T01:50:19.185Z,35.58
2019-02-21T01:52:49.085Z,34.65
2019-02-21T01:55:18.038Z,33.70
2019-02-21T01:57:46.606Z,31.85
2019-02-21T02:00:15.694Z,36.75
2019-02-21T02:02:45.723Z,32.93
2019-02-21T02:05:14.314Z,34.75
2019-02-21T02:07:43.275Z,35.50
2019-02-21T02:10:12.565Z,36.42
2019-02-21T02:12:41.422Z,34.85
2019-02-21T02:15:10.536Z,34.70
2019-02-21T02:17:39.706Z,34.60
2019-02-21T02:20:08.647Z,35.95
2019-02-21T02:22:37.663Z,36.75
2019-02-21T02:25:06.599Z,34.53
2019-02-21T02:27:35.680Z,33.05
2019-02-21T02:30:05.517Z,37.40
2019-02-21T02:32:34.654Z,35.48
2019-02-21T02:35:03.314Z,33.63
2019-02-21T02:37:33.072Z,32.42
2019-02-21T02:40:01.654Z,34.55
2019-02-21T02:42:30.776Z,34.92
2019-02-21T02:44:59.698Z,33.42
2019-02-21T02:47:28.654Z,33.70
2019-02-21T02:49:57.392Z,35.05
2019-02-21T02:52:26.198Z,33.98
2019-02-21T02:54:55.768Z,34.40
2019-02-21T02:57:24.604Z,35.50
2019-02-21T02:59:53.684Z,35.43
2019-02-21T03:02:22.520Z,36.68
2019-02-21T03:04:51.460Z,37.15
2019-02-21T03:07:21.601Z,35.78
2019-02-21T03:09:51.474Z,36.75
2019-02-21T03:12:20.663Z,36.98
2019-02-21T03:14:49.767Z,37.28
2019-02-21T03:17:18.465Z,35.55
2019-02-21T03:19:47.246Z,37.17
2019-02-21T03:22:16.416Z,37.30
2019-02-21T03:24:45.278Z,36.70
2019-02-21T03:27:14.204Z,36.13
2019-02-21T03:29:43.045Z,35.75
2019-02-21T03:32:11.817Z,36.48
2019-02-21T03:34:40.717Z,37.75
2019-02-21T03:37:10.631Z,38.33
2019-02-21T03:39:39.597Z,35.28
2019-02-21T03:42:08.640Z,37.80
2019-02-21T03:44:37.458Z,37.13
2019-02-21T03:47:06.739Z,36.75
2019-02-21T03:49:35.418Z,39.13
2019-02-21T03:52:04.014Z,37.78
2019-02-21T03:54:32.896Z,39.23
2019-02-21T03:57:02.465Z,39.40
2019-02-21T03:59:31.295Z,39.20
2019-02-21T04:02:05.174Z,39.48
2019-02-21T04:04:30.914Z,38.70
2019-02-21T04:06:59.869Z,38.13
2019-02-21T04:09:28.618Z,39.70
2019-02-21T04:11:57.738Z,39.73
2019-02-21T04:14:26.505Z,39.50
2019-02-21T04:16:55.430Z,37.65
2019-02-21T04:19:24.099Z,39.67
2019-02-21T04:21:52.902Z,38.63
2019-02-21T04:24:21.731Z,38.10
2019-02-21T04:26:50.517Z,39.83
2019-02-21T04:29:19.676Z,39.00
2019-02-21T04:31:48.308Z,38.67
2019-02-21T04:34:17.365Z,42.50
2019-02-21T04:36:46.185Z,37.90
2019-02-21T04:39:15.066Z,38.50
2019-02-21T04:41:43.726Z,35.75
2019-02-21T04:44:12.515Z,34.73
2019-02-21T04:46:41.406Z,35.70
2019-02-21T04:49:10.229Z,35.15
2019-02-21T04:51:39.176Z,34.65
2019-02-21T04:54:08.012Z,33.75
2019-02-21T04:56:37.037Z,31.95
2019-02-21T04:59:06.714Z,35.78
2019-02-21T05:01:35.555Z,32.25
2019-02-21T05:04:04.910Z,31.75
2019-02-21T05:06:33.805Z,34.20
2019-02-21T05:09:02.861Z,33.48
2019-02-21T05:11:33.227Z,33.67
2019-02-21T05:14:02.167Z,32.28
2019-02-21T05:16:30.704Z,32.00
2019-02-21T05:18:59.508Z,33.48
2019-02-21T05:21:28.954Z,33.02
2019-02-21T05:23:57.694Z,32.85
2019-02-21T05:26:27.866Z,32.50
2019-02-21T05:28:56.501Z,34.20
2019-02-21T05:31:42.954Z,34.40
2019-02-21T05:34:29.967Z,35.17
2019-02-21T05:37:00.156Z,33.48
2019-02-21T05:39:34.804Z,34.27
2019-02-21T05:42:14.694Z,35.45
2019-02-21T05:44:45.238Z,34.75
2019-02-21T05:47:31.858Z,36.53
2019-02-21T05:50:08.221Z,37.33
2019-02-21T05:52:54.726Z,34.50
2019-02-21T05:55:24.980Z,34.18
2019-02-21T05:57:58.425Z,36.03
2019-02-21T06:00:31.714Z,36.40
2019-02-21T06:03:04.725Z,37.35
2019-02-21T06:05:35.408Z,37.90
2019-02-21T06:08:08.451Z,37.28
2019-02-21T06:10:56.764Z,37.17
2019-02-21T06:13:39.347Z,36.00
2019-02-21T06:16:09.965Z,37.93
2019-02-21T06:18:56.569Z,37.70
2019-02-21T06:21:39.085Z,39.92
2019-02-21T06:26:54.008Z,36.17
2019-02-21T06:32:14.237Z,37.78
2019-02-21T06:34:37.459Z,39.38
2019-02-21T06:37:06.269Z,38.85
2019-02-21T06:39:35.150Z,38.38
2019-02-21T06:42:04.040Z,40.20
2019-02-21T06:44:33.120Z,41.30
2019-02-21T06:47:01.725Z,39.25
2019-02-21T06:49:32.831Z,39.60
2019-02-21T06:52:01.056Z,41.33
2019-02-21T06:54:30.019Z,40.78
2019-02-21T06:56:58.783Z,40.92
2019-02-21T06:59:27.662Z,42.48
2019-02-21T07:01:56.797Z,43.28
2019-02-21T07:04:25.554Z,43.15
2019-02-21T07:06:56.630Z,42.73
2019-02-21T07:09:24.604Z,41.23
2019-02-21T07:11:53.518Z,41.15
2019-02-21T07:14:22.699Z,40.28
2019-02-21T07:16:51.507Z,41.98
2019-02-21T07:19:20.557Z,41.25
2019-02-21T07:21:49.306Z,43.00
2019-02-21T07:24:18.267Z,42.83
2019-02-21T07:26:47.360Z,39.70
2019-02-21T07:29:16.108Z,40.55
2019-02-21T07:31:44.827Z,40.40
2019-02-21T07:34:13.775Z,41.73
2019-02-21T07:36:42.966Z,43.83
2019-02-21T07:39:18.339Z,42.88
2019-02-21T07:41:42.125Z,43.38
2019-02-21T07:44:12.387Z,45.38
2019-02-21T07:46:41.270Z,43.55
2019-02-21T07:49:10.269Z,44.53
2019-02-21T07:51:41.367Z,44.77
2019-02-21T07:54:09.815Z,45.33
2019-02-21T07:56:42.123Z,43.98
2019-02-21T07:59:09.017Z,42.33
2019-02-21T08:01:39.472Z,44.58
2019-02-21T08:04:08.603Z,45.40
2019-02-21T08:06:37.559Z,44.15
2019-02-21T08:09:07.921Z,44.40
2019-02-21T08:11:37.131Z,43.48
2019-02-21T08:14:06.056Z,43.30
2019-02-21T08:16:34.965Z,43.28
2019-02-21T08:19:03.886Z,43.55
2019-02-21T08:21:32.483Z,41.63
2019-02-21T08:24:01.606Z,42.53
2019-02-21T08:26:30.600Z,41.37
2019-02-21T08:28:59.438Z,43.28
2019-02-21T08:31:28.304Z,43.98
2019-02-21T08:34:10.949Z,39.15
2019-02-21T08:39:08.655Z,40.08
2019-02-21T08:41:39.094Z,38.73
2019-02-21T08:44:07.915Z,39.85
2019-02-21T08:46:36.695Z,43.02
2019-02-21T08:49:05.342Z,40.73
2019-02-21T08:51:33.946Z,39.27
2019-02-21T08:54:05.529Z,37.50
2019-02-21T08:56:33.555Z,37.45
2019-02-21T08:59:02.165Z,37.03
2019-02-21T09:01:31.229Z,37.75
2019-02-21T09:04:10.031Z,37.25
2019-02-21T09:06:30.847Z,38.48
2019-02-21T09:08:59.458Z,37.45
2019-02-21T09:11:28.188Z,36.68
2019-02-21T09:13:56.797Z,37.53
2019-02-21T09:16:25.955Z,37.73
2019-02-21T09:18:55.001Z,36.75
2019-02-21T09:21:23.688Z,37.23
2019-02-21T09:23:52.446Z,38.10
2019-02-21T09:26:21.802Z,37.13
2019-02-21T09:28:50.603Z,33.10
2019-02-21T09:31:19.199Z,34.48
2019-02-21T09:33:48.110Z,35.63
2019-02-21T09:36:17.036Z,35.05
2019-02-21T09:38:45.811Z,33.78
2019-02-21T09:41:14.479Z,34.23
2019-02-21T09:43:43.138Z,34.45
2019-02-21T09:46:12.086Z,33.48
2019-02-21T09:48:41.077Z,32.50
2019-02-21T09:51:09.665Z,36.40
2019-02-21T09:53:39.604Z,35.17
2019-02-21T09:56:08.336Z,35.30
2019-02-21T09:58:37.277Z,35.90
2019-02-21T10:01:06.182Z,36.65
2019-02-21T10:03:35.933Z,35.17
2019-02-21T10:06:05.128Z,35.85
2019-02-21T10:08:33.806Z,36.45
2019-02-21T10:11:02.757Z,34.18
2019-02-21T10:13:31.731Z,38.25
2019-02-21T10:16:00.399Z,38.15
2019-02-21T10:18:29.093Z,37.98
2019-02-21T10:20:58.045Z,39.27
2019-02-21T10:23:27.054Z,34.58
2019-02-21T10:25:56.034Z,39.35
2019-02-21T10:28:24.923Z,37.60
2019-02-21T10:30:53.523Z,37.58
2019-02-21T10:33:22.295Z,40.78
2019-02-21T10:35:51.218Z,39.78
2019-02-21T10:38:20.177Z,40.88
2019-02-21T10:40:49.014Z,39.23
2019-02-21T10:43:18.074Z,37.88
2019-02-21T10:45:48.061Z,38.88
2019-02-21T10:48:17.286Z,37.03
2019-02-21T10:50:46.227Z,40.05
2019-02-21T10:53:15.181Z,40.05
2019-02-21T10:55:44.128Z,37.83
2019-02-21T10:58:12.826Z,40.70
2019-02-21T11:00:41.955Z,40.67
2019-02-21T11:03:11.108Z,39.85
2019-02-21T11:05:41.170Z,40.23
2019-02-21T11:08:09.808Z,39.58
2019-02-21T11:10:38.488Z,39.33
2019-02-21T11:13:07.669Z,39.75
2019-02-21T11:15:36.630Z,37.53
2019-02-21T11:18:05.507Z,40.30
2019-02-21T11:20:34.504Z,41.53
2019-02-21T11:23:03.315Z,39.35
2019-02-21T11:25:31.994Z,38.25
2019-02-21T11:28:00.997Z,41.50
2019-02-21T11:30:29.685Z,40.25
2019-02-21T11:32:58.665Z,40.08
2019-02-21T11:35:27.516Z,40.30
2019-02-21T11:37:56.199Z,39.60
2019-02-21T11:40:25.248Z,44.05
2019-02-21T11:42:54.295Z,43.42
2019-02-21T11:45:23.236Z,47.53
2019-02-21T11:47:52.175Z,47.80
2019-02-21T11:50:20.897Z,45.95
2019-02-21T11:52:49.966Z,44.25
2019-02-21T11:55:23.198Z,46.63
2019-02-21T11:57:51.829Z,44.67
2019-02-21T12:00:21.661Z,45.30
2019-02-21T12:02:51.431Z,44.58
2019-02-21T12:05:30.623Z,44.48
2019-02-21T12:07:50.398Z,45.63
2019-02-21T12:10:19.128Z,44.05
2019-02-21T12:12:47.829Z,43.65
2019-02-21T12:15:17.138Z,43.60
2019-02-21T12:17:45.939Z,44.45
2019-02-21T12:20:15.101Z,40.40
2019-02-21T12:22:44.030Z,41.55
2019-02-21T12:25:14.389Z,43.48
2019-02-21T12:27:43.259Z,40.30
2019-02-21T12:30:15.918Z,40.60
2019-02-21T12:32:44.976Z,37.45
2019-02-21T12:35:14.148Z,38.28
2019-02-21T12:37:43.271Z,35.48
2019-02-21T12:40:18.818Z,35.92
2019-02-21T12:42:47.815Z,36.38
2019-02-21T12:45:20.067Z,38.45
2019-02-21T12:47:53.345Z,37.60
2019-02-21T12:50:19.725Z,38.83
2019-02-21T12:52:48.278Z,38.20
2019-02-21T12:55:26.920Z,36.50
2019-02-21T12:57:47.491Z,39.18
2019-02-21T13:00:19.515Z,40.30
2019-02-21T13:02:48.418Z,38.55
2019-02-21T13:05:17.255Z,39.95
2019-02-21T13:07:46.318Z,42.65
2019-02-21T13:10:16.724Z,41.60
2019-02-21T13:12:45.635Z,39.23
2019-02-21T13:15:14.986Z,41.37
2019-02-21T13:17:43.714Z,42.73
2019-02-21T13:20:13.157Z,40.30
2019-02-21T13:22:42.158Z,42.90
2019-02-21T13:25:12.217Z,43.10
2019-02-21T13:27:41.137Z,43.95
2019-02-21T13:30:11.062Z,41.80
2019-02-21T13:32:39.760Z,43.55
2019-02-21T13:35:09.257Z,46.98
2019-02-21T13:37:38.205Z,50.08
2019-02-21T13:40:08.757Z,42.23
2019-02-21T13:42:37.430Z,40.95
2019-02-21T13:45:06.984Z,46.50
2019-02-21T13:47:36.038Z,46.08
2019-02-21T13:50:06.439Z,45.90
2019-02-21T13:52:35.206Z,43.83
2019-02-21T13:55:04.579Z,44.10
2019-02-21T13:57:33.207Z,45.28
2019-02-21T14:00:02.195Z,39.90
2019-02-21T14:02:32.367Z,40.28
2019-02-21T14:05:01.284Z,34.78
2019-02-21T14:07:31.006Z,34.45
2019-02-21T14:09:59.618Z,36.48
2019-02-21T14:12:28.740Z,40.05
2019-02-21T14:14:57.416Z,38.35
2019-02-21T14:17:26.479Z,46.28
2019-02-21T14:19:55.358Z,46.60
2019-02-21T14:22:24.315Z,38.63
2019-02-21T14:24:53.623Z,42.38
2019-02-21T14:27:22.217Z,48.95
2019-02-21T14:29:51.376Z,36.30
2019-02-21T14:32:20.300Z,31.10
2019-02-21T14:34:49.355Z,37.13
2019-02-21T14:37:18.224Z,35.45
2019-02-21T14:39:46.874Z,36.03
2019-02-21T14:42:16.926Z,35.08
2019-02-21T14:44:45.986Z,32.70
2019-02-21T14:47:14.605Z,31.17
2019-02-21T14:49:43.332Z,33.33
2019-02-21T14:52:12.111Z,32.85
2019-02-21T14:54:42.207Z,34.08
2019-02-21T14:57:10.914Z,35.00
2019-02-21T14:59:39.569Z,38.02
2019-02-21T15:02:08.373Z,42.00
2019-02-21T15:04:38.324Z,37.48
2019-02-21T15:07:07.155Z,35.73
2019-02-21T15:09:35.826Z,40.52
2019-02-21T15:12:04.389Z,37.35
2019-02-21T15:14:33.334Z,38.33
2019-02-21T15:17:03.806Z,37.10
2019-02-21T15:19:32.478Z,41.83
2019-02-21T15:22:01.115Z,40.83
2019-02-21T15:24:29.980Z,38.60
2019-02-21T15:27:08.186Z,36.63
2019-02-21T15:29:29.173Z,40.33
2019-02-21T15:31:58.088Z,36.30
2019-02-21T15:34:26.817Z,38.67
2019-02-21T15:36:55.545Z,41.60
2019-02-21T15:39:24.265Z,40.70
2019-02-21T15:41:52.889Z,37.98
2019-02-21T15:44:22.517Z,42.30
2019-02-21T15:46:51.542Z,55.73
2019-02-21T15:49:20.522Z,55.33
2019-02-21T15:51:49.112Z,44.42
2019-02-21T15:54:18.125Z,40.98
2019-02-21T15:56:46.796Z,44.33
2019-02-21T15:59:15.596Z,45.20
2019-02-21T16:01:47.617Z,51.30
2019-02-21T16:04:14.809Z,45.20
2019-02-21T16:06:51.103Z,49.42
2019-02-21T16:09:16.524Z,49.98
2019-02-21T16:11:45.461Z,50.17
2019-02-21T16:14:14.246Z,53.68
2019-02-21T16:16:42.975Z,51.23
2019-02-21T16:19:11.773Z,50.50
2019-02-21T16:21:40.398Z,52.67
2019-02-21T16:24:09.342Z,52.55
2019-02-21T16:26:38.056Z,54.80
2019-02-21T16:29:06.764Z,56.80
2019-02-21T16:31:35.701Z,52.03
2019-02-21T16:34:04.546Z,59.90
2019-02-21T16:36:33.370Z,61.63
2019-02-21T16:39:04.389Z,61.00
2019-02-21T16:41:36.298Z,60.08
2019-02-21T16:44:06.799Z,61.23
2019-02-21T16:46:34.488Z,56.13
2019-02-21T16:49:03.118Z,54.42
2019-02-21T16:51:31.741Z,63.85
2019-02-21T16:54:01.414Z,55.92
2019-02-21T16:56:31.853Z,57.30
2019-02-21T16:59:00.515Z,60.48
2019-02-21T17:01:29.987Z,57.25
2019-02-21T17:03:59.367Z,59.40
2019-02-21T17:06:27.969Z,58.20
2019-02-21T17:08:56.946Z,62.80
2019-02-21T17:11:25.685Z,56.30
2019-02-21T17:13:54.373Z,61.73
2019-02-21T17:16:23.137Z,62.35
2019-02-21T17:18:51.950Z,65.72
2019-02-21T17:21:22.168Z,72.30
2019-02-21T17:23:50.811Z,66.05
2019-02-21T17:26:19.452Z,71.55
2019-02-21T17:28:48.094Z,69.80
2019-02-21T17:31:23.016Z,83.62
2019-02-21T17:33:51.928Z,65.87
2019-02-21T17:36:20.694Z,70.15
2019-02-21T17:38:49.364Z,67.40
2019-02-21T17:41:18.096Z,65.40
2019-02-21T17:43:47.955Z,67.30
2019-02-21T17:46:17.136Z,75.12
2019-02-21T17:48:45.847Z,71.42
2019-02-21T17:51:14.892Z,68.70
2019-02-21T17:53:43.653Z,65.92
2019-02-21T17:56:12.531Z,70.45
2019-02-21T17:58:41.162Z,67.15
2019-02-21T18:01:09.844Z,71.67
2019-02-21T18:03:38.393Z,61.40
2019-02-21T18:06:07.085Z,70.05
2019-02-21T18:08:36.041Z,69.60
2019-02-21T18:11:04.877Z,69.00
2019-02-21T18:13:33.612Z,62.58
2019-02-21T18:16:02.454Z,61.25
2019-02-21T18:18:31.494Z,66.25
2019-02-21T18:21:00.195Z,64.97
2019-02-21T18:23:28.888Z,65.05
2019-02-21T18:25:59.419Z,67.58
2019-02-21T18:28:28.232Z,63.45
2019-02-21T18:30:56.452Z,66.37
2019-02-21T18:33:25.558Z,67.67
2019-02-21T18:35:54.587Z,62.70
2019-02-21T18:38:23.418Z,67.08
2019-02-21T18:40:54.406Z,61.85
2019-02-21T18:43:22.705Z,61.75
2019-02-21T18:45:51.614Z,67.62
2019-02-21T18:48:20.356Z,73.55
2019-02-21T18:50:49.080Z,75.08
2019-02-21T18:53:17.731Z,71.60
2019-02-21T18:55:46.301Z,76.65
2019-02-21T18:58:15.257Z,72.12
2019-02-21T19:00:44.130Z,71.75
2019-02-21T19:03:13.307Z,68.78
2019-02-21T19:05:41.965Z,65.12
2019-02-21T19:08:10.714Z,69.27
2019-02-21T19:10:40.578Z,62.25
2019-02-21T19:13:09.587Z,65.42
2019-02-21T19:15:38.488Z,59.85
2019-02-21T19:18:07.329Z,66.53
2019-02-21T19:20:35.961Z,61.40
2019-02-21T19:23:04.648Z,63.42
2019-02-21T19:25:33.364Z,54.88
2019-02-21T19:28:02.237Z,51.30
2019-02-21T19:30:32.728Z,51.13
2019-02-21T19:33:01.617Z,43.23
2019-02-21T19:35:30.485Z,47.80
2019-02-21T19:38:09.976Z,45.33
2019-02-21T19:40:30.013Z,44.70
2019-02-21T19:42:58.636Z,39.60
2019-02-21T19:45:27.428Z,36.98
2019-02-21T19:47:56.056Z,30.72
2019-02-21T19:50:25.330Z,35.83
2019-02-21T19:52:54.357Z,28.30
2019-02-21T19:55:22.986Z,43.83
2019-02-21T19:57:52.166Z,39.73
2019-02-21T20:00:27.911Z,33.65
2019-02-21T20:02:56.909Z,29.92
2019-02-21T20:05:25.692Z,27.77
2019-02-21T20:07:54.479Z,35.98
2019-02-21T20:10:23.590Z,25.97
2019-02-21T20:12:53.268Z,30.90
2019-02-21T20:15:22.208Z,31.50
2019-02-21T20:17:50.917Z,23.50
2019-02-21T20:20:20.534Z,18.23
2019-02-21T20:22:49.662Z,18.25
2019-02-21T20:25:18.521Z,12.80
2019-02-21T20:27:47.707Z,15.35
2019-02-21T20:30:19.623Z,20.95
2019-02-21T20:32:48.307Z,15.43
2019-02-21T20:35:17.213Z,20.35
2019-02-21T20:37:45.947Z,30.68
2019-02-21T20:40:14.832Z,27.15
2019-02-21T20:42:43.513Z,40.40
2019-02-21T20:45:12.859Z,46.48
2019-02-21T20:47:41.426Z,30.30
2019-02-21T20:50:12.991Z,21.30
2019-02-21T20:52:43.005Z,25.37
2019-02-21T20:55:17.787Z,42.05
2019-02-21T20:57:50.210Z,40.88
2019-02-21T21:00:21.619Z,40.33
2019-02-21T21:02:51.809Z,23.50
2019-02-21T21:05:22.858Z,17.10
2019-02-21T21:07:56.223Z,18.40
2019-02-21T21:10:27.544Z,34.67
2019-02-21T21:12:58.299Z,15.65
2019-02-21T21:15:28.195Z,26.93
2019-02-21T21:17:58.784Z,11.48
2019-02-21T21:20:30.488Z,11.83
2019-02-21T21:23:00.395Z,20.02
2019-02-21T21:25:31.974Z,22.15
2019-02-21T21:28:01.619Z,25.00
2019-02-21T21:30:31.707Z,22.73
2019-02-21T21:33:01.919Z,24.07
2019-02-21T21:35:32.035Z,31.33
2019-02-21T21:38:03.920Z,18.80
2019-02-21T21:40:34.144Z,16.67
2019-02-21T21:43:05.877Z,22.58
2019-02-21T21:45:40.943Z,36.17
2019-02-21T21:48:15.082Z,52.23
2019-02-21T21:50:47.577Z,36.80
2019-02-21T21:53:22.160Z,21.62
2019-02-21T21:55:52.748Z,20.72
2019-02-21T21:58:26.033Z,26.05
2019-02-21T22:00:57.558Z,33.15
2019-02-21T22:03:28.541Z,29.80
2019-02-21T22:05:59.916Z,18.48
2019-02-21T22:08:32.403Z,20.60
2019-02-21T22:11:01.385Z,18.55
2019-02-21T22:13:36.145Z,22.37
2019-02-21T22:16:08.178Z,22.95
2019-02-21T22:21:25.856Z,20.62
2019-02-21T22:23:57.106Z,8.28
2019-02-21T22:26:30.925Z,34.48
2019-02-21T22:29:07.604Z,74.80
2019-02-21T22:31:37.977Z,57.33
2019-02-21T22:34:09.712Z,67.90
2019-02-21T22:36:42.896Z,14.20
2019-02-21T22:39:16.262Z,112.57
2019-02-21T22:41:45.987Z,94.45
2019-02-21T22:44:25.617Z,135.05
2019-02-21T22:47:00.752Z,15.13
2019-02-21T22:49:30.419Z,34.00
2019-02-21T22:52:01.106Z,37.63
2019-02-21T22:54:39.076Z,45.10
2019-02-21T22:57:10.939Z,19.23
2019-02-21T22:59:45.228Z,6.37
2019-02-21T23:02:20.375Z,8.98
2019-02-21T23:04:55.185Z,11.95
2019-02-21T23:07:30.706Z,11.95
2019-02-21T23:10:02.397Z,8.43
2019-02-21T23:12:36.584Z,15.30
2019-02-21T23:15:09.159Z,32.33
2019-02-21T23:17:40.958Z,6.83
2019-02-21T23:20:11.436Z,13.98
2019-02-21T23:22:41.117Z,10.98
2019-02-21T23:25:12.217Z,21.60
2019-02-21T23:27:41.926Z,45.60
2019-02-21T23:30:13.597Z,12.90
2019-02-21T23:35:18.052Z,8.73
2019-02-21T23:37:48.845Z,8.85
2019-02-21T23:40:18.092Z,5.42
2019-02-21T23:42:48.278Z,2.70
2019-02-21T23:45:20.446Z,14.75
2019-02-21T23:47:51.438Z,5.45
2019-02-21T23:50:25.469Z,9.53
2019-02-21T23:53:01.414Z,10.55
2019-02-21T23:55:31.395Z,3.65
2019-02-21T23:58:02.127Z,7.65
